Time;durP1;ratioP1;P1;durP2;ratioP2;P2;SDS_P1;SDS_P2;PMS_P1;PMS_P2;Temp;Humidity;BMP_temperature;BMP_pressure;BME280_temperature;BME280_humidity;BME280_pressure;Samples;Min_cycle;Max_cycle;Signal;HPM_P1;HPM_P2
2023/05/16 00:00:46;;;;;;;1.02;0.75;;;19.60;85.50;;;;;;5045044;28;45562;-74
2023/05/16 00:03:13;;;;;;;1.80;0.70;;;19.60;85.20;;;;;;5044826;28;45411;-74
2023/05/16 00:05:40;;;;;;;1.38;0.77;;;19.60;85.40;;;;;;5044934;28;47360;-74
2023/05/16 00:08:08;;;;;;;2.03;0.90;;;19.60;85.70;;;;;;5044637;28;45133;-74
2023/05/16 00:10:35;;;;;;;0.88;0.60;;;19.60;85.90;;;;;;5044996;28;45326;-75
2023/05/16 00:13:02;;;;;;;1.00;0.60;;;19.60;86.30;;;;;;5044909;28;45373;-75
2023/05/16 00:15:29;;;;;;;1.45;0.65;;;19.60;86.30;;;;;;5044505;28;46617;-75
2023/05/16 00:17:58;;;;;;;0.98;0.55;;;19.60;86.30;;;;;;5044935;28;46066;-74
2023/05/16 00:20:25;;;;;;;0.85;0.60;;;19.60;86.30;;;;;;5044658;28;45257;-74
2023/05/16 00:22:52;;;;;;;1.55;0.77;;;19.60;86.20;;;;;;5044960;28;45298;-74
2023/05/16 00:25:20;;;;;;;0.88;0.50;;;19.60;86.30;;;;;;5044011;28;46819;-74
2023/05/16 00:27:47;;;;;;;0.75;0.40;;;19.60;86.20;;;;;;5044681;28;45236;-75
2023/05/16 00:30:14;;;;;;;1.52;0.60;;;19.60;85.80;;;;;;5044708;28;45227;-75
2023/05/16 00:32:41;;;;;;;1.00;0.55;;;19.50;85.50;;;;;;5044663;28;45471;-75
2023/05/16 00:35:09;;;;;;;1.05;0.65;;;19.50;85.10;;;;;;5044250;28;46702;-75
2023/05/16 00:37:36;;;;;;;1.55;0.55;;;19.60;84.90;;;;;;5044394;28;45293;-75
2023/05/16 00:40:03;;;;;;;1.10;0.60;;;19.50;84.70;;;;;;5044462;28;45285;-75
2023/05/16 00:42:32;;;;;;;0.88;0.60;;;19.50;84.40;;;;;;5044752;28;45149;-75
2023/05/16 00:45:00;;;;;;;0.75;0.52;;;20.10;85.80;;;;;;5044498;28;47810;-75
2023/05/16 00:47:27;;;;;;;1.95;0.40;;;19.50;84.50;;;;;;5044535;28;45286;-75
2023/05/16 00:49:53;;;;;;;0.82;0.50;;;19.50;84.10;;;;;;5044671;28;45226;-75
2023/05/16 00:52:22;;;;;;;1.15;0.45;;;19.50;85.20;;;;;;5044238;28;45291;-76
2023/05/16 00:54:50;;;;;;;1.15;0.70;;;19.50;84.30;;;;;;5044033;28;45675;-76
2023/05/16 00:57:18;;;;;;;0.98;0.55;;;19.50;84.40;;;;;;5044089;28;46007;-76
2023/05/16 00:59:48;;;;;;;1.25;0.50;;;18.90;85.70;;;;;;5044392;28;45458;-76
2023/05/16 01:02:15;;;;;;;0.80;0.50;;;20.40;87.60;;;;;;5044793;28;45057;-76
2023/05/16 01:04:48;;;;;;;1.00;0.57;;;19.90;88.50;;;;;;5044270;28;45591;-76
2023/05/16 01:07:27;;;;;;;2.28;0.57;;;19.70;88.90;;;;;;5044464;28;45284;-75
2023/05/16 01:10:01;;;;;;;0.40;0.32;;;19.60;88.10;;;;;;5044118;28;45261;-76
2023/05/16 01:12:38;;;;;;;1.40;0.40;;;19.70;86.60;;;;;;5044393;28;45143;-76
2023/05/16 01:15:17;;;;;;;0.70;0.50;;;19.60;86.00;;;;;;5043875;28;45691;-76
2023/05/16 01:17:55;;;;;;;1.98;0.47;;;19.90;86.70;;;;;;5044294;28;45401;-76
2023/05/16 01:20:42;;;;;;;1.38;0.60;;;18.90;84.00;;;;;;5043858;28;45328;-76
2023/05/16 01:23:52;;;;;;;;;;;;;;;;;;;;;
2023/05/16 01:29:09;;;;;;;2.30;0.77;;;21.40;87.20;;;;;;5033955;28;45438;-76
2023/05/16 01:31:38;;;;;;;0.85;0.40;;;20.30;85.80;;;;;;5044368;28;45322;-76
2023/05/16 01:34:07;;;;;;;0.63;0.35;;;19.90;85.10;;;;;;5043990;28;45430;-76
2023/05/16 01:36:44;;;;;;;1.00;0.60;;;19.90;85.10;;;;;;5042324;28;45304;-76
2023/05/16 01:39:20;;;;;;;0.60;0.45;;;19.50;83.00;;;;;;5043507;28;45408;-76
2023/05/16 01:42:06;;;;;;;2.30;0.60;;;21.00;86.60;;;;;;5043648;28;45275;-76
2023/05/16 01:44:42;;;;;;;2.75;0.55;;;19.70;84.70;;;;;;5043527;28;45329;-76
2023/05/16 11:36:07;;;;;;;4.30;0.90;;;19.60;66.70;;;;;;5488332;22;45281;-68
2023/05/16 11:38:35;;;;;;;2.20;0.70;;;19.60;69.60;;;;;;4964660;28;45437;-76
2023/05/16 11:41:04;;;;;;;4.93;0.80;;;19.70;72.80;;;;;;4969793;28;45148;-76
2023/05/16 11:43:38;;;;;;;3.08;0.75;;;19.60;69.20;;;;;;4969173;28;46504;-76
2023/05/16 11:46:05;;;;;;;1.42;0.55;;;19.60;69.30;;;;;;4969333;28;45206;-76
2023/05/16 11:48:32;;;;;;;2.50;0.80;;;19.60;68.70;;;;;;4969688;28;45425;-76
2023/05/16 11:50:58;;;;;;;1.88;0.60;;;19.60;68.90;;;;;;4969886;28;45527;-76
2023/05/16 11:53:28;;;;;;;1.15;0.60;;;19.60;68.90;;;;;;4969242;28;47283;-76
2023/05/16 11:55:55;;;;;;;1.30;0.40;;;19.60;68.70;;;;;;4969061;28;45178;-74
2023/05/16 11:58:22;;;;;;;2.40;0.68;;;19.60;68.70;;;;;;4968620;28;45088;-76
2023/05/16 12:00:50;;;;;;;2.53;0.65;;;19.70;69.50;;;;;;4969650;28;45229;-76
2023/05/16 12:03:19;;;;;;;2.38;0.77;;;19.70;68.60;;;;;;4969639;28;47450;-76
2023/05/16 12:05:56;;;;;;;1.75;0.45;;;19.70;68.90;;;;;;4969329;28;45135;-76
2023/05/16 12:08:24;;;;;;;1.40;0.40;;;19.60;68.70;;;;;;4969479;28;45321;-76
2023/05/16 12:10:53;;;;;;;5.32;0.60;;;19.60;69.10;;;;;;4969068;28;45296;-76
2023/05/16 12:13:22;;;;;;;2.20;0.50;;;19.70;69.30;;;;;;4971554;28;45514;-76
2023/05/16 12:15:51;;;;;;;2.05;0.70;;;19.70;69.70;;;;;;4969540;28;45337;-76
2023/05/16 12:18:19;;;;;;;1.13;0.40;;;19.60;69.90;;;;;;4969299;28;45300;-76
2023/05/16 12:20:47;;;;;;;0.95;0.50;;;19.70;69.90;;;;;;4968087;28;45181;-76
2023/05/16 12:23:14;;;;;;;2.35;0.57;;;19.70;69.70;;;;;;4969035;28;48367;-75
2023/05/16 12:25:48;;;;;;;1.48;0.47;;;19.70;69.40;;;;;;4968856;28;45232;-77
2023/05/16 12:28:16;;;;;;;0.93;0.50;;;19.80;69.10;;;;;;4961230;28;45283;-75
2023/05/16 12:30:46;;;;;;;5.07;0.75;;;19.80;68.90;;;;;;4968700;28;45231;-75
2023/05/16 12:33:15;;;;;;;2.60;0.55;;;19.80;69.10;;;;;;4968866;28;45318;-76
2023/05/16 12:35:43;;;;;;;1.85;0.60;;;19.80;69.00;;;;;;4967879;28;45447;-76
2023/05/16 12:38:11;;;;;;;4.43;0.60;;;19.80;68.90;;;;;;4968772;28;45157;-76
2023/05/16 12:40:40;;;;;;;1.63;0.52;;;19.90;68.70;;;;;;4968802;28;45447;-75
2023/05/16 12:43:14;;;;;;;2.55;0.60;;;19.90;69.10;;;;;;4976353;28;47016;-76
2023/05/16 12:45:43;;;;;;;1.45;0.60;;;19.90;68.50;;;;;;4987820;28;45427;-75
2023/05/16 12:48:13;;;;;;;3.05;0.60;;;19.90;68.70;;;;;;4988010;28;45109;-75
2023/05/16 12:50:41;;;;;;;1.70;0.55;;;19.90;68.20;;;;;;4988216;28;45323;-75
2023/05/16 12:53:12;;;;;;;1.27;0.52;;;19.90;68.40;;;;;;4987876;28;46528;-76
2023/05/16 12:55:40;;;;;;;1.50;0.68;;;19.90;68.40;;;;;;4988013;28;45267;-76
2023/05/16 12:58:07;;;;;;;2.03;0.70;;;19.90;68.50;;;;;;4988143;28;45193;-75
2023/05/16 13:00:35;;;;;;;2.60;0.68;;;20.00;68.70;;;;;;4987893;28;45186;-75
2023/05/16 13:03:04;;;;;;;1.23;0.47;;;20.00;68.60;;;;;;4979915;28;48392;-75
2023/05/16 13:05:30;;;;;;;2.40;1.23;;;19.90;68.40;;;;;;4969465;28;45321;-75
2023/05/16 13:07:57;;;;;;;1.08;0.63;;;20.00;68.60;;;;;;4963843;28;45309;-74
2023/05/16 13:10:24;;;;;;;1.75;0.60;;;20.00;67.80;;;;;;4968303;28;45067;-75
2023/05/16 13:12:52;;;;;;;2.08;0.52;;;19.90;68.00;;;;;;4967516;28;47372;-76
2023/05/16 13:15:19;;;;;;;2.22;0.55;;;19.90;67.50;;;;;;4967401;28;45374;-75
2023/05/16 13:17:47;;;;;;;0.73;0.30;;;20.00;67.30;;;;;;4966690;28;45542;-75
2023/05/16 13:20:16;;;;;;;2.83;0.73;;;20.00;67.10;;;;;;4984337;28;45582;-74
2023/05/16 13:22:43;;;;;;;2.05;0.70;;;20.00;66.70;;;;;;4986729;28;46625;-74
2023/05/16 13:25:11;;;;;;;1.52;0.45;;;20.10;67.60;;;;;;4987348;28;45487;-74
2023/05/16 13:27:38;;;;;;;0.95;0.50;;;20.10;67.00;;;;;;4984631;28;45165;-73
2023/05/16 13:30:06;;;;;;;1.42;0.52;;;20.10;65.00;;;;;;4967911;28;45426;-75
2023/05/16 13:32:33;;;;;;;1.17;0.57;;;20.10;64.80;;;;;;4985672;28;45338;-75
2023/05/16 13:35:00;;;;;;;2.22;0.60;;;20.10;64.30;;;;;;4986869;28;45280;-75
2023/05/16 13:37:28;;;;;;;1.23;0.60;;;20.10;64.20;;;;;;4976564;28;45233;-74
2023/05/16 13:39:55;;;;;;;0.88;0.50;;;20.10;64.50;;;;;;4967840;28;45562;-75
2023/05/16 13:42:22;;;;;;;1.15;0.35;;;20.00;64.80;;;;;;4967759;28;46534;-75
2023/05/16 13:44:48;;;;;;;0.85;0.60;;;20.00;64.50;;;;;;4967606;28;45350;-75
2023/05/16 13:47:15;;;;;;;0.95;0.32;;;20.00;64.50;;;;;;4967809;28;45293;-74
2023/05/16 13:49:42;;;;;;;0.75;0.40;;;20.00;64.50;;;;;;4967370;28;45424;-74
2023/05/16 13:52:09;;;;;;;1.27;0.50;;;20.00;64.30;;;;;;4967459;28;47263;-74
2023/05/16 13:54:47;;;;;;;1.20;0.40;;;20.00;64.20;;;;;;5189167;27;45256;-74
2023/05/16 13:57:14;;;;;;;0.68;0.50;;;20.00;63.70;;;;;;5187084;27;45170;-73
2023/05/16 13:59:40;;;;;;;1.27;0.47;;;19.90;63.30;;;;;;5182278;27;45278;-74
2023/05/16 14:02:07;;;;;;;3.75;0.82;;;19.90;62.40;;;;;;5165901;27;45528;-74
2023/05/16 14:04:34;;;;;;;0.73;0.30;;;19.90;62.40;;;;;;5167304;27;46297;-71
2023/05/16 14:07:01;;;;;;;1.67;0.68;;;19.90;62.40;;;;;;5170992;27;45299;-77
2023/05/16 14:09:27;;;;;;;1.60;0.52;;;20.00;64.10;;;;;;5168026;27;45301;-76
2023/05/16 14:11:56;;;;;;;1.95;0.40;;;19.90;63.60;;;;;;5180598;27;45174;-76
2023/05/16 14:14:22;;;;;;;1.05;0.32;;;19.90;63.90;;;;;;5165071;27;47092;-75
2023/05/16 14:16:49;;;;;;;2.00;0.50;;;19.90;65.30;;;;;;5184680;27;46009;-76
2023/05/16 14:19:16;;;;;;;1.88;0.57;;;19.90;64.90;;;;;;5165824;27;45409;-75
2023/05/16 14:21:43;;;;;;;1.15;0.55;;;19.90;65.00;;;;;;5165190;27;45484;-75
2023/05/16 14:24:10;;;;;;;1.67;0.68;;;19.90;64.70;;;;;;5165475;27;45342;-76
2023/05/16 14:26:38;;;;;;;1.23;0.40;;;19.90;64.80;;;;;;5165430;27;45202;-75
2023/05/16 14:29:09;;;;;;;1.48;0.60;;;20.00;64.80;;;;;;5165322;27;45215;-76
2023/05/16 14:31:38;;;;;;;1.15;0.47;;;20.00;64.90;;;;;;5165865;27;45113;-76
2023/05/16 14:34:05;;;;;;;2.40;0.50;;;19.90;64.80;;;;;;5165062;27;45783;-76
2023/05/16 14:36:34;;;;;;;1.15;0.50;;;19.90;64.70;;;;;;5165464;27;45128;-76
2023/05/16 14:39:03;;;;;;;0.50;0.40;;;19.90;64.50;;;;;;5165217;27;45215;-77
2023/05/16 14:41:31;;;;;;;2.28;0.50;;;19.90;64.20;;;;;;5165057;27;45376;-76
2023/05/16 14:43:58;;;;;;;0.95;0.40;;;19.90;64.10;;;;;;5164976;27;46896;-76
2023/05/16 14:46:29;;;;;;;2.47;0.47;;;19.90;64.20;;;;;;5167685;27;45323;-76
2023/05/16 14:48:58;;;;;;;2.15;0.47;;;19.90;63.80;;;;;;5165357;27;45177;-77
2023/05/16 14:51:28;;;;;;;0.70;0.38;;;19.80;63.80;;;;;;5165001;27;45140;-77
2023/05/16 14:53:57;;;;;;;1.38;0.43;;;19.80;64.10;;;;;;5164354;27;45953;-77
2023/05/16 14:56:26;;;;;;;0.75;0.40;;;19.80;64.00;;;;;;5164718;27;45248;-76
2023/05/16 14:58:56;;;;;;;1.00;0.50;;;19.80;64.20;;;;;;5164750;27;45234;-77
2023/05/16 15:01:25;;;;;;;0.90;0.50;;;19.80;63.80;;;;;;5165016;27;45524;-76
2023/05/16 15:03:58;;;;;;;0.68;0.38;;;19.80;64.30;;;;;;5163914;27;45975;-76
2023/05/16 15:06:26;;;;;;;2.05;0.63;;;19.80;64.00;;;;;;5150548;27;45420;-77
2023/05/16 15:08:56;;;;;;;0.45;0.40;;;19.80;63.80;;;;;;5151329;27;45212;-76
2023/05/16 15:11:25;;;;;;;0.70;0.50;;;19.80;63.50;;;;;;5151158;27;45121;-77
2023/05/16 15:13:55;;;;;;;1.50;0.73;;;19.80;64.50;;;;;;5150417;27;46091;-77
2023/05/16 15:16:25;;;;;;;2.15;0.57;;;19.90;63.60;;;;;;5151098;27;45209;-77
2023/05/16 15:18:57;;;;;;;1.77;0.50;;;19.80;63.30;;;;;;5150648;27;45512;-77
2023/05/16 15:21:26;;;;;;;1.67;0.43;;;19.80;63.40;;;;;;5150943;27;45320;-77
2023/05/16 15:23:56;;;;;;;1.35;0.50;;;19.80;63.10;;;;;;5150539;27;46576;-77
2023/05/16 15:26:26;;;;;;;1.15;0.60;;;19.80;62.90;;;;;;5150244;27;45179;-77
2023/05/16 15:28:54;;;;;;;1.55;0.50;;;19.80;62.90;;;;;;5150409;27;45243;-77
2023/05/16 15:31:21;;;;;;;1.10;0.43;;;19.80;62.50;;;;;;5150360;27;45376;-77
2023/05/16 15:33:51;;;;;;;0.85;0.45;;;19.80;62.60;;;;;;5150537;27;45599;-77
2023/05/16 15:36:22;;;;;;;0.82;0.40;;;19.80;62.80;;;;;;5153004;27;45222;-77
2023/05/16 15:38:50;;;;;;;0.47;0.40;;;19.80;62.80;;;;;;5150887;27;45248;-77
2023/05/16 15:41:20;;;;;;;0.68;0.32;;;19.80;62.80;;;;;;5150615;27;45121;-77
2023/05/16 15:43:50;;;;;;;1.95;0.60;;;19.80;62.90;;;;;;5150576;27;45380;-77
2023/05/16 15:46:17;;;;;;;0.52;0.30;;;19.70;62.80;;;;;;5150301;27;45220;-77
2023/05/16 15:48:47;;;;;;;0.38;0.30;;;19.90;62.80;;;;;;5150070;27;45238;-77
2023/05/16 15:51:16;;;;;;;1.50;0.60;;;19.80;63.00;;;;;;5150147;27;45619;-77
2023/05/16 15:53:48;;;;;;;1.98;0.75;;;19.70;62.80;;;;;;5149341;27;45393;-77
2023/05/16 15:56:18;;;;;;;2.47;0.68;;;19.80;62.60;;;;;;5150300;27;45276;-77
2023/05/16 15:58:48;;;;;;;2.25;0.50;;;19.70;62.30;;;;;;5150224;27;45356;-77
2023/05/16 16:01:17;;;;;;;2.10;0.60;;;19.80;62.30;;;;;;5150277;27;45469;-77
2023/05/16 16:03:46;;;;;;;1.17;0.50;;;19.80;62.40;;;;;;5149685;27;45853;-77
2023/05/16 16:06:15;;;;;;;1.30;0.50;;;19.80;62.40;;;;;;5150163;27;45090;-77
2023/05/16 16:08:42;;;;;;;3.00;0.57;;;19.80;62.40;;;;;;5149807;27;45303;-77
2023/05/16 16:11:13;;;;;;;1.77;0.40;;;19.80;62.10;;;;;;5149838;27;45185;-76
2023/05/16 16:13:41;;;;;;;1.02;0.43;;;19.70;61.70;;;;;;5149616;27;45555;-76
2023/05/16 16:16:10;;;;;;;3.08;0.60;;;19.70;61.80;;;;;;5148869;27;45141;-76
2023/05/16 16:18:39;;;;;;;2.30;0.82;;;19.70;61.90;;;;;;5149468;27;45384;-76
2023/05/16 16:21:09;;;;;;;1.13;0.57;;;19.70;61.90;;;;;;5150252;27;45072;-76
2023/05/16 16:23:36;;;;;;;0.88;0.40;;;19.70;62.00;;;;;;5149553;27;45904;-76
2023/05/16 16:26:05;;;;;;;0.52;0.40;;;19.70;61.50;;;;;;5149736;27;45261;-76
2023/05/16 16:28:37;;;;;;;0.47;0.38;;;19.70;61.70;;;;;;5151997;27;45309;-77
2023/05/16 16:31:06;;;;;;;1.90;0.50;;;19.70;61.40;;;;;;5149627;27;45278;-77
2023/05/16 16:33:35;;;;;;;0.80;0.60;;;19.70;61.50;;;;;;5149044;27;45738;-77
2023/05/16 16:36:03;;;;;;;1.30;0.63;;;19.70;61.50;;;;;;5149435;27;45158;-76
2023/05/16 16:38:30;;;;;;;2.38;0.90;;;19.80;62.20;;;;;;5149562;27;45133;-76
2023/05/16 16:40:58;;;;;;;1.10;0.70;;;19.70;61.70;;;;;;5149825;27;45160;-76
2023/05/16 16:43:28;;;;;;;2.53;0.80;;;19.70;61.50;;;;;;5149282;27;45742;-77
2023/05/16 16:46:00;;;;;;;2.05;0.75;;;19.70;61.50;;;;;;5148975;27;45148;-77
2023/05/16 16:48:27;;;;;;;1.70;0.77;;;19.70;61.40;;;;;;5155756;27;45433;-70
2023/05/16 16:50:55;;;;;;;6.28;1.10;;;19.70;61.30;;;;;;5164627;27;45399;-74
2023/05/16 16:53:22;;;;;;;8.05;1.63;;;19.70;62.20;;;;;;5160187;27;46379;-74
2023/05/16 16:55:49;;;;;;;5.45;0.98;;;19.70;61.50;;;;;;5150739;27;45327;-74
2023/05/16 16:58:15;;;;;;;8.73;1.02;;;19.70;62.40;;;;;;5166658;27;45553;-74
2023/05/16 17:00:43;;;;;;;2.92;0.93;;;19.70;61.70;;;;;;5159024;27;45401;-74
2023/05/16 17:03:11;;;;;;;2.05;0.93;;;19.70;61.60;;;;;;5161873;27;45485;-74
2023/05/16 17:05:38;;;;;;;1.80;0.77;;;19.70;61.80;;;;;;5165786;27;45982;-74
2023/05/16 17:08:05;;;;;;;3.30;1.08;;;19.60;61.90;;;;;;5167771;27;45450;-73
2023/05/16 17:10:32;;;;;;;2.45;1.40;;;19.60;61.80;;;;;;5153471;27;45538;-73
2023/05/16 17:13:05;;;;;;;4.63;2.45;;;19.60;61.80;;;;;;5159902;27;46629;-74
2023/05/16 17:15:32;;;;;;;5.25;3.55;;;19.60;61.70;;;;;;5165101;27;45316;-74
2023/05/16 17:17:59;;;;;;;5.38;4.10;;;19.60;61.60;;;;;;5165264;27;45480;-74
2023/05/16 17:20:27;;;;;;;6.13;4.50;;;19.60;61.40;;;;;;5167219;27;45268;-74
2023/05/16 17:22:54;;;;;;;6.93;4.93;;;19.60;61.20;;;;;;5160276;27;45459;-74
2023/05/16 17:25:21;;;;;;;5.72;4.22;;;19.60;61.30;;;;;;5154557;27;45373;-74
2023/05/16 17:27:48;;;;;;;6.20;4.47;;;19.60;61.00;;;;;;5157693;27;45377;-74
2023/05/16 17:30:15;;;;;;;6.05;4.40;;;19.60;60.90;;;;;;5165558;27;45427;-74
2023/05/16 17:32:41;;;;;;;7.70;5.28;;;19.60;61.90;;;;;;5164540;27;47221;-74
2023/05/16 17:35:09;;;;;;;6.93;5.53;;;19.60;60.10;;;;;;5165605;27;45271;-74
2023/05/16 17:37:37;;;;;;;7.22;5.18;;;19.60;59.80;;;;;;5165177;27;45386;-74
2023/05/16 17:40:05;;;;;;;6.05;4.10;;;19.60;60.00;;;;;;5166517;27;45628;-74
2023/05/16 17:42:31;;;;;;;6.70;4.57;;;19.60;60.10;;;;;;5165073;27;46567;-73
2023/05/16 17:45:02;;;;;;;7.03;4.53;;;19.60;60.50;;;;;;5165367;27;46386;-73
2023/05/16 17:47:29;;;;;;;5.75;3.75;;;19.60;60.00;;;;;;5165400;27;45540;-74
2023/05/16 17:49:55;;;;;;;4.45;3.10;;;19.70;60.00;;;;;;5160780;27;45433;-75
2023/05/16 17:52:22;;;;;;;5.18;3.38;;;19.60;59.60;;;;;;5157212;27;48498;-73
2023/05/16 17:54:51;;;;;;;5.18;3.30;;;19.70;59.50;;;;;;5164647;27;45635;-73
2023/05/16 17:57:18;;;;;;;4.63;2.60;;;19.70;59.90;;;;;;5164020;27;45450;-73
2023/05/16 17:59:45;;;;;;;4.30;2.25;;;19.70;59.90;;;;;;5158136;27;45615;-75
2023/05/16 18:02:14;;;;;;;2.88;1.92;;;19.70;59.50;;;;;;5155398;27;47478;-74
2023/05/16 18:04:41;;;;;;;4.10;1.85;;;19.70;59.00;;;;;;5155504;27;45286;-74
2023/05/16 18:07:07;;;;;;;2.33;1.60;;;19.70;58.80;;;;;;5147530;27;45256;-75
2023/05/16 18:09:34;;;;;;;2.33;1.67;;;19.60;58.40;;;;;;5149084;27;45294;-75
2023/05/16 18:12:02;;;;;;;2.80;1.77;;;19.60;58.40;;;;;;5149076;27;45405;-75
2023/05/16 18:14:29;;;;;;;2.90;1.45;;;19.60;58.40;;;;;;5157167;27;46031;-75
2023/05/16 18:16:56;;;;;;;2.85;1.30;;;19.60;58.70;;;;;;5168375;27;45265;-74
2023/05/16 18:19:22;;;;;;;2.15;1.40;;;19.60;58.40;;;;;;5149433;27;45454;-75
2023/05/16 18:21:49;;;;;;;1.77;1.05;;;19.60;58.70;;;;;;5164351;27;46622;-75
2023/05/16 18:24:16;;;;;;;3.85;1.33;;;19.60;58.40;;;;;;5168492;27;45374;-76
2023/05/16 18:26:45;;;;;;;2.13;1.23;;;19.60;58.50;;;;;;5155162;27;45449;-76
2023/05/16 18:29:13;;;;;;;2.38;1.33;;;19.60;58.30;;;;;;5147815;27;45227;-75
2023/05/16 18:31:41;;;;;;;2.10;1.30;;;19.60;58.40;;;;;;5147121;27;47565;-76
2023/05/16 18:34:08;;;;;;;3.05;1.38;;;19.70;59.10;;;;;;5147755;27;45557;-75
2023/05/16 18:36:34;;;;;;;3.25;1.60;;;19.70;59.50;;;;;;5158538;27;45288;-74
2023/05/16 18:39:01;;;;;;;3.58;1.52;;;19.70;59.70;;;;;;5164046;27;45302;-74
2023/05/16 18:41:28;;;;;;;3.47;1.83;;;19.80;60.00;;;;;;5170415;27;46592;-73
2023/05/16 18:43:55;;;;;;;4.38;1.77;;;19.80;60.10;;;;;;5156821;27;45312;-74
2023/05/16 18:46:23;;;;;;;3.83;1.52;;;19.80;60.30;;;;;;5150977;27;45094;-75
2023/05/16 18:48:50;;;;;;;2.20;1.50;;;19.80;60.50;;;;;;5164279;27;45293;-74
2023/05/16 18:51:16;;;;;;;3.00;1.40;;;19.80;60.70;;;;;;5170383;27;47336;-73
2023/05/16 18:53:43;;;;;;;4.35;1.60;;;19.80;60.80;;;;;;5157668;27;45248;-74
2023/05/16 18:56:10;;;;;;;4.00;1.60;;;19.80;60.80;;;;;;5158786;27;45326;-74
2023/05/16 18:58:37;;;;;;;2.40;1.42;;;19.80;60.90;;;;;;5171748;27;45385;-74
2023/05/16 19:01:04;;;;;;;2.05;1.20;;;19.90;61.00;;;;;;5169975;27;47894;-71
2023/05/16 19:03:32;;;;;;;2.95;1.33;;;19.90;61.30;;;;;;5158931;27;45264;-70
2023/05/16 19:05:59;;;;;;;5.95;1.73;;;19.90;62.30;;;;;;5166635;27;45432;-74
2023/05/16 19:08:25;;;;;;;3.45;1.30;;;20.00;63.50;;;;;;5166669;27;45501;-74
2023/05/16 19:10:53;;;;;;;3.00;1.60;;;20.00;64.20;;;;;;5162032;27;46223;-74
2023/05/16 19:13:20;;;;;;;3.33;1.45;;;20.00;63.20;;;;;;5155471;27;45305;-75
2023/05/16 19:15:47;;;;;;;2.88;1.40;;;19.90;63.20;;;;;;5156444;27;45426;-74
2023/05/16 19:18:13;;;;;;;3.70;1.33;;;19.90;63.50;;;;;;5148775;27;45456;-74
2023/05/16 19:20:42;;;;;;;3.97;1.52;;;19.90;63.80;;;;;;5156174;27;46626;-75
2023/05/16 19:23:08;;;;;;;6.45;1.45;;;19.90;63.90;;;;;;5164325;27;45235;-74
2023/05/16 19:25:35;;;;;;;3.63;1.08;;;19.90;64.10;;;;;;5155475;27;45261;-74
2023/05/16 19:28:02;;;;;;;1.70;1.05;;;19.90;64.30;;;;;;5163630;27;45532;-74
2023/05/16 19:30:29;;;;;;;2.85;1.30;;;19.90;64.70;;;;;;5168086;27;47305;-74
2023/05/16 19:32:56;;;;;;;5.05;1.27;;;19.90;65.00;;;;;;5166346;27;45368;-75
2023/05/16 19:35:22;;;;;;;2.90;1.20;;;19.90;65.10;;;;;;5166109;27;45472;-74
2023/05/16 19:37:50;;;;;;;2.50;1.17;;;19.80;65.10;;;;;;5168652;27;45243;-74
2023/05/16 19:40:17;;;;;;;1.63;0.85;;;19.80;65.30;;;;;;5155980;27;48277;-74
2023/05/16 19:42:44;;;;;;;3.63;1.30;;;19.80;65.60;;;;;;5166645;27;46401;-74
2023/05/16 19:45:11;;;;;;;2.53;1.10;;;19.80;65.80;;;;;;5164995;27;45648;-74
2023/05/16 19:47:38;;;;;;;3.40;1.02;;;19.80;67.10;;;;;;5156513;27;45450;-73
2023/05/16 19:50:06;;;;;;;3.20;0.95;;;19.80;66.10;;;;;;5163727;27;45445;-74
2023/05/16 19:52:33;;;;;;;1.77;0.95;;;19.80;66.30;;;;;;5164016;27;45357;-74
2023/05/16 19:55:01;;;;;;;1.85;1.02;;;19.80;66.40;;;;;;5159653;27;45557;-74
2023/05/16 19:57:28;;;;;;;1.77;1.02;;;19.80;66.40;;;;;;5163290;27;45426;-74
2023/05/16 19:59:55;;;;;;;1.77;0.70;;;19.80;66.60;;;;;;5160116;27;45358;-74
2023/05/16 20:02:22;;;;;;;2.63;1.05;;;19.80;66.50;;;;;;5157887;27;45294;-74
2023/05/16 20:04:49;;;;;;;3.50;1.00;;;19.70;66.70;;;;;;5162607;27;45369;-74
2023/05/16 20:07:16;;;;;;;2.50;1.08;;;19.80;66.80;;;;;;5155056;27;45623;-74
2023/05/16 20:09:42;;;;;;;2.90;0.95;;;19.80;66.70;;;;;;5164024;27;45547;-74
2023/05/16 20:12:11;;;;;;;1.83;0.95;;;19.70;66.80;;;;;;5163828;27;45457;-74
2023/05/16 20:14:38;;;;;;;2.85;1.00;;;19.70;67.10;;;;;;5165223;27;45429;-74
2023/05/16 20:17:05;;;;;;;2.20;1.10;;;19.70;67.30;;;;;;5165344;27;45368;-74
2023/05/16 20:19:32;;;;;;;1.90;0.95;;;19.80;67.50;;;;;;5163452;27;47409;-74
2023/05/16 20:21:58;;;;;;;2.67;0.90;;;19.70;67.70;;;;;;5162840;27;45316;-74
2023/05/16 20:24:25;;;;;;;1.38;0.60;;;19.80;67.90;;;;;;5164000;27;45200;-74
2023/05/16 20:26:52;;;;;;;2.88;0.80;;;19.70;67.80;;;;;;5160029;27;45626;-74
2023/05/16 20:29:20;;;;;;;3.22;1.10;;;19.70;67.60;;;;;;5159802;27;48365;-74
2023/05/16 20:31:47;;;;;;;2.33;0.88;;;19.70;67.80;;;;;;5156709;27;45516;-74
2023/05/16 20:34:13;;;;;;;2.28;1.13;;;19.70;68.00;;;;;;5165739;27;45204;-74
2023/05/16 20:36:40;;;;;;;1.45;0.80;;;19.70;67.90;;;;;;5165943;27;45574;-74
2023/05/16 20:39:07;;;;;;;2.00;0.90;;;19.70;67.80;;;;;;5164594;27;46188;-74
2023/05/16 20:41:34;;;;;;;2.20;0.90;;;19.70;68.00;;;;;;5155438;27;45327;-74
2023/05/16 20:44:01;;;;;;;2.15;0.88;;;19.70;68.00;;;;;;5169691;27;45316;-74
2023/05/16 20:46:29;;;;;;;1.35;0.80;;;19.70;68.30;;;;;;5159205;27;45574;-74
2023/05/16 20:48:56;;;;;;;2.10;1.00;;;19.70;68.50;;;;;;5158661;27;47866;-74
2023/05/16 20:51:23;;;;;;;2.00;0.55;;;19.70;68.30;;;;;;5160808;27;45441;-74
2023/05/16 20:53:49;;;;;;;1.05;0.75;;;19.70;68.70;;;;;;5161387;27;45323;-74
2023/05/16 20:56:16;;;;;;;1.92;1.05;;;19.70;68.70;;;;;;5153203;27;45413;-74
2023/05/16 20:58:43;;;;;;;1.40;0.70;;;19.70;68.30;;;;;;5158063;27;46574;-74
2023/05/16 21:01:09;;;;;;;2.20;0.73;;;19.70;68.30;;;;;;5150856;27;45318;-74
2023/05/16 21:03:38;;;;;;;1.33;0.68;;;19.70;68.20;;;;;;5164014;27;45336;-74
2023/05/16 21:06:04;;;;;;;1.45;0.63;;;19.70;68.50;;;;;;5165812;27;45565;-74
2023/05/16 21:08:31;;;;;;;2.25;0.90;;;19.70;68.40;;;;;;5162855;27;45517;-73
2023/05/16 21:10:58;;;;;;;1.52;0.70;;;19.70;68.40;;;;;;5157197;27;45366;-74
2023/05/16 21:13:25;;;;;;;2.03;0.90;;;19.70;68.50;;;;;;5162117;27;45333;-74
2023/05/16 21:15:52;;;;;;;0.95;0.50;;;19.70;68.40;;;;;;5158740;27;45604;-73
2023/05/16 21:18:18;;;;;;;1.48;0.70;;;19.70;68.60;;;;;;5156896;27;46604;-74
2023/05/16 21:20:46;;;;;;;3.60;0.80;;;19.70;68.60;;;;;;5158894;27;45498;-74
2023/05/16 21:23:13;;;;;;;1.50;0.70;;;19.70;68.70;;;;;;5162156;27;45265;-74
2023/05/16 21:25:40;;;;;;;2.38;0.80;;;19.70;68.70;;;;;;5162655;27;45431;-74
2023/05/16 21:28:07;;;;;;;1.77;0.60;;;19.70;69.00;;;;;;5159024;27;46728;-74
2023/05/16 21:30:34;;;;;;;1.65;0.90;;;19.70;69.20;;;;;;5159647;27;45533;-74
2023/05/16 21:33:01;;;;;;;2.20;0.80;;;19.60;69.50;;;;;;5165982;27;45343;-74
2023/05/16 21:35:28;;;;;;;0.77;0.57;;;19.60;69.60;;;;;;5164968;27;45555;-74
2023/05/16 21:37:56;;;;;;;1.20;0.60;;;19.60;69.80;;;;;;5156919;27;46281;-74
2023/05/16 21:40:24;;;;;;;1.25;0.50;;;19.60;70.00;;;;;;5157426;27;45490;-74
2023/05/16 21:42:51;;;;;;;1.50;0.60;;;19.60;69.90;;;;;;5156110;27;45410;-74
2023/05/16 21:45:18;;;;;;;1.67;0.85;;;19.60;69.50;;;;;;5161115;27;45436;-74
2023/05/16 21:47:46;;;;;;;2.17;0.57;;;19.60;69.10;;;;;;5156117;27;47676;-74
2023/05/16 21:50:13;;;;;;;1.35;0.52;;;19.60;68.70;;;;;;5156197;27;45333;-74
2023/05/16 21:52:40;;;;;;;9.10;1.00;;;19.60;68.40;;;;;;5154939;27;45455;-74
2023/05/16 21:55:09;;;;;;;1.13;0.50;;;19.60;68.50;;;;;;5164684;27;45536;-74
2023/05/16 21:57:36;;;;;;;1.10;0.68;;;19.60;68.40;;;;;;5164749;27;46420;-74
2023/05/16 22:00:05;;;;;;;1.85;0.75;;;19.60;68.40;;;;;;5155031;27;45455;-74
2023/05/16 22:02:32;;;;;;;1.60;0.75;;;19.60;68.40;;;;;;5152836;27;45436;-74
2023/05/16 22:04:59;;;;;;;0.98;0.68;;;19.60;68.40;;;;;;5159787;27;45347;-74
2023/05/16 22:07:28;;;;;;;2.83;0.70;;;19.60;68.70;;;;;;5162138;27;46842;-74
2023/05/16 22:09:55;;;;;;;2.00;0.57;;;19.60;68.90;;;;;;5152595;27;45644;-74
2023/05/16 22:12:23;;;;;;;1.45;0.80;;;19.60;69.00;;;;;;5155806;27;45390;-74
2023/05/16 22:14:50;;;;;;;2.15;0.60;;;19.60;69.60;;;;;;5157620;27;45594;-74
2023/05/16 22:17:17;;;;;;;1.13;0.50;;;19.60;70.10;;;;;;5161398;27;47359;-74
2023/05/16 22:19:44;;;;;;;2.30;0.68;;;19.60;70.30;;;;;;5160578;27;46083;-73
2023/05/16 22:22:11;;;;;;;1.30;0.50;;;19.60;70.70;;;;;;5155554;27;45580;-74
2023/05/16 22:24:38;;;;;;;1.42;0.70;;;19.60;70.90;;;;;;5159062;27;45248;-74
2023/05/16 22:27:05;;;;;;;0.75;0.52;;;19.60;71.30;;;;;;5158536;27;47114;-74
2023/05/16 22:29:36;;;;;;;0.80;0.57;;;19.60;71.40;;;;;;5160865;27;45361;-74
2023/05/16 22:32:05;;;;;;;0.90;0.52;;;19.60;70.70;;;;;;5166952;27;45370;-74
2023/05/16 22:34:32;;;;;;;1.45;0.50;;;19.60;70.00;;;;;;5157819;27;46321;-74
2023/05/16 22:36:59;;;;;;;0.98;0.60;;;19.60;69.80;;;;;;5161827;27;47096;-74
2023/05/16 22:39:26;;;;;;;1.95;0.60;;;19.60;69.60;;;;;;5167901;27;45652;-74
2023/05/16 22:41:52;;;;;;;1.30;0.70;;;19.60;69.40;;;;;;5155666;27;45511;-74
2023/05/16 22:44:19;;;;;;;2.33;0.75;;;19.60;69.40;;;;;;5165371;27;45600;-74